sensor_id;sensor_type;location;lat;lon;timestamp;P1;durP1;ratioP1;P2;durP2;ratioP2
78549;SDS011;68091;52.130;5.570;2023-06-22T00:01:27;7.82;;;6.10;;
78549;SDS011;68091;52.130;5.570;2023-06-22T00:03:53;7.35;;;5.22;;
78549;SDS011;68091;52.130;5.570;2023-06-22T00:06:18;6.57;;;5.30;;
78549;SDS011;68091;52.130;5.570;2023-06-22T00:08:44;8.48;;;5.53;;
78549;SDS011;68091;52.130;5.570;2023-06-22T00:11:10;8.40;;;5.80;;
78549;SDS011;68091;52.130;5.570;2023-06-22T00:13:36;8.05;;;6.25;;
78549;SDS011;68091;52.130;5.570;2023-06-22T00:16:02;9.20;;;7.15;;
78549;SDS011;68091;52.130;5.570;2023-06-22T00:18:28;11.93;;;6.72;;
78549;SDS011;68091;52.130;5.570;2023-06-22T00:20:55;9.48;;;6.25;;
78549;SDS011;68091;52.130;5.570;2023-06-22T00:23:22;7.38;;;6.30;;
78549;SDS011;68091;52.130;5.570;2023-06-22T00:25:49;8.05;;;6.20;;
78549;SDS011;68091;52.130;5.570;2023-06-22T00:28:14;10.25;;;6.93;;
78549;SDS011;68091;52.130;5.570;2023-06-22T00:30:40;6.95;;;6.03;;
78549;SDS011;68091;52.130;5.570;2023-06-22T00:33:06;7.75;;;6.40;;
78549;SDS011;68091;52.130;5.570;2023-06-22T00:35:32;10.05;;;6.95;;
78549;SDS011;68091;52.130;5.570;2023-06-22T00:37:59;9.32;;;6.25;;
78549;SDS011;68091;52.130;5.570;2023-06-22T00:40:29;9.23;;;6.47;;
78549;SDS011;68091;52.130;5.570;2023-06-22T00:42:57;8.93;;;6.95;;
78549;SDS011;68091;52.130;5.570;2023-06-22T00:45:23;10.20;;;6.53;;
78549;SDS011;68091;52.130;5.570;2023-06-22T00:47:50;8.40;;;6.25;;
78549;SDS011;68091;52.130;5.570;2023-06-22T00:50:18;7.40;;;6.05;;
78549;SDS011;68091;52.130;5.570;2023-06-22T00:52:48;11.57;;;7.15;;
78549;SDS011;68091;52.130;5.570;2023-06-22T00:55:19;8.68;;;7.13;;
78549;SDS011;68091;52.130;5.570;2023-06-22T00:57:46;10.52;;;7.28;;
78549;SDS011;68091;52.130;5.570;2023-06-22T01:00:13;8.68;;;6.82;;
78549;SDS011;68091;52.130;5.570;2023-06-22T01:02:42;9.75;;;7.38;;
78549;SDS011;68091;52.130;5.570;2023-06-22T01:05:11;8.38;;;6.93;;
78549;SDS011;68091;52.130;5.570;2023-06-22T01:10:31;8.75;;;6.43;;
78549;SDS011;68091;52.130;5.570;2023-06-22T01:13:12;10.15;;;7.60;;
78549;SDS011;68091;52.130;5.570;2023-06-22T01:15:48;11.13;;;7.70;;
78549;SDS011;68091;52.130;5.570;2023-06-22T01:18:18;8.20;;;7.28;;
78549;SDS011;68091;52.130;5.570;2023-06-22T01:20:45;12.90;;;8.27;;
78549;SDS011;68091;52.130;5.570;2023-06-22T01:29:19;11.27;;;8.10;;
78549;SDS011;68091;52.130;5.570;2023-06-22T01:31:47;13.02;;;7.90;;
78549;SDS011;68091;52.130;5.570;2023-06-22T01:34:14;11.77;;;8.48;;
78549;SDS011;68091;52.130;5.570;2023-06-22T01:36:41;10.93;;;8.27;;
78549;SDS011;68091;52.130;5.570;2023-06-22T01:39:08;9.55;;;8.43;;
78549;SDS011;68091;52.130;5.570;2023-06-22T01:41:36;10.75;;;8.18;;
78549;SDS011;68091;52.130;5.570;2023-06-22T01:44:05;11.60;;;8.43;;
78549;SDS011;68091;52.130;5.570;2023-06-22T01:46:36;10.55;;;8.70;;
78549;SDS011;68091;52.130;5.570;2023-06-22T01:49:04;9.38;;;8.25;;
78549;SDS011;68091;52.130;5.570;2023-06-22T01:51:31;13.50;;;8.00;;
78549;SDS011;68091;52.130;5.570;2023-06-22T01:53:57;14.32;;;9.27;;
78549;SDS011;68091;52.130;5.570;2023-06-22T01:56:22;10.85;;;8.27;;
78549;SDS011;68091;52.130;5.570;2023-06-22T02:01:54;13.00;;;9.85;;
78549;SDS011;68091;52.130;5.570;2023-06-22T02:04:27;12.57;;;9.20;;
78549;SDS011;68091;52.130;5.570;2023-06-22T02:07:01;15.82;;;9.43;;
78549;SDS011;68091;52.130;5.570;2023-06-22T02:09:34;13.68;;;8.90;;
78549;SDS011;68091;52.130;5.570;2023-06-22T02:12:02;15.25;;;8.80;;
78549;SDS011;68091;52.130;5.570;2023-06-22T02:14:30;14.35;;;8.93;;
78549;SDS011;68091;52.130;5.570;2023-06-22T02:16:56;12.60;;;9.57;;
78549;SDS011;68091;52.130;5.570;2023-06-22T02:19:24;14.82;;;10.13;;
78549;SDS011;68091;52.130;5.570;2023-06-22T02:21:51;15.05;;;9.80;;
78549;SDS011;68091;52.130;5.570;2023-06-22T02:24:17;13.60;;;9.95;;
78549;SDS011;68091;52.130;5.570;2023-06-22T02:26:43;16.88;;;10.13;;
78549;SDS011;68091;52.130;5.570;2023-06-22T02:29:10;12.57;;;9.80;;
78549;SDS011;68091;52.130;5.570;2023-06-22T02:31:36;15.48;;;10.80;;
78549;SDS011;68091;52.130;5.570;2023-06-22T02:34:01;12.27;;;9.70;;
78549;SDS011;68091;52.130;5.570;2023-06-22T02:36:27;14.15;;;10.85;;
78549;SDS011;68091;52.130;5.570;2023-06-22T02:38:55;12.93;;;10.18;;
78549;SDS011;68091;52.130;5.570;2023-06-22T02:41:26;14.82;;;10.45;;
78549;SDS011;68091;52.130;5.570;2023-06-22T02:43:52;13.93;;;10.00;;
78549;SDS011;68091;52.130;5.570;2023-06-22T02:46:17;15.20;;;9.88;;
78549;SDS011;68091;52.130;5.570;2023-06-22T02:48:43;13.55;;;10.13;;
78549;SDS011;68091;52.130;5.570;2023-06-22T02:51:09;13.38;;;9.43;;
78549;SDS011;68091;52.130;5.570;2023-06-22T02:53:35;16.40;;;9.38;;
78549;SDS011;68091;52.130;5.570;2023-06-22T02:56:01;14.40;;;10.43;;
78549;SDS011;68091;52.130;5.570;2023-06-22T02:58:31;14.15;;;9.85;;
78549;SDS011;68091;52.130;5.570;2023-06-22T03:01:03;18.80;;;10.95;;
78549;SDS011;68091;52.130;5.570;2023-06-22T03:03:31;13.57;;;10.82;;
78549;SDS011;68091;52.130;5.570;2023-06-22T03:05:57;15.65;;;10.35;;
78549;SDS011;68091;52.130;5.570;2023-06-22T03:08:23;14.30;;;10.63;;
78549;SDS011;68091;52.130;5.570;2023-06-22T03:10:49;14.50;;;10.20;;
78549;SDS011;68091;52.130;5.570;2023-06-22T03:13:14;11.27;;;9.00;;
78549;SDS011;68091;52.130;5.570;2023-06-22T03:15:40;14.10;;;10.57;;
78549;SDS011;68091;52.130;5.570;2023-06-22T03:18:06;14.32;;;10.57;;
78549;SDS011;68091;52.130;5.570;2023-06-22T03:20:31;14.93;;;11.73;;
78549;SDS011;68091;52.130;5.570;2023-06-22T03:22:58;14.35;;;10.73;;
78549;SDS011;68091;52.130;5.570;2023-06-22T03:25:24;16.27;;;11.57;;
78549;SDS011;68091;52.130;5.570;2023-06-22T03:27:50;18.13;;;11.23;;
78549;SDS011;68091;52.130;5.570;2023-06-22T03:30:16;14.63;;;10.45;;
78549;SDS011;68091;52.130;5.570;2023-06-22T03:32:42;15.95;;;11.10;;
78549;SDS011;68091;52.130;5.570;2023-06-22T03:35:08;16.70;;;11.27;;
78549;SDS011;68091;52.130;5.570;2023-06-22T03:37:39;15.27;;;11.70;;
78549;SDS011;68091;52.130;5.570;2023-06-22T03:40:05;18.05;;;12.07;;
78549;SDS011;68091;52.130;5.570;2023-06-22T03:42:31;18.92;;;12.13;;
78549;SDS011;68091;52.130;5.570;2023-06-22T03:44:58;20.35;;;11.93;;
78549;SDS011;68091;52.130;5.570;2023-06-22T03:47:25;19.85;;;14.05;;
78549;SDS011;68091;52.130;5.570;2023-06-22T03:49:51;24.02;;;14.00;;
78549;SDS011;68091;52.130;5.570;2023-06-22T03:52:20;19.42;;;13.63;;
78549;SDS011;68091;52.130;5.570;2023-06-22T03:54:48;20.50;;;14.02;;
78549;SDS011;68091;52.130;5.570;2023-06-22T03:57:14;18.85;;;13.80;;
78549;SDS011;68091;52.130;5.570;2023-06-22T03:59:39;19.70;;;14.70;;
78549;SDS011;68091;52.130;5.570;2023-06-22T04:02:05;22.90;;;16.70;;
78549;SDS011;68091;52.130;5.570;2023-06-22T04:04:31;20.98;;;16.20;;
78549;SDS011;68091;52.130;5.570;2023-06-22T04:06:56;25.38;;;17.52;;
78549;SDS011;68091;52.130;5.570;2023-06-22T04:09:22;23.35;;;16.85;;
78549;SDS011;68091;52.130;5.570;2023-06-22T04:11:48;22.15;;;16.92;;
78549;SDS011;68091;52.130;5.570;2023-06-22T04:14:14;22.73;;;16.70;;
78549;SDS011;68091;52.130;5.570;2023-06-22T04:16:39;22.95;;;16.27;;
78549;SDS011;68091;52.130;5.570;2023-06-22T04:19:05;21.92;;;15.32;;
78549;SDS011;68091;52.130;5.570;2023-06-22T04:21:31;21.63;;;14.70;;
78549;SDS011;68091;52.130;5.570;2023-06-22T04:23:56;18.77;;;14.18;;
78549;SDS011;68091;52.130;5.570;2023-06-22T04:26:22;20.67;;;14.75;;
78549;SDS011;68091;52.130;5.570;2023-06-22T04:28:48;19.30;;;14.80;;
78549;SDS011;68091;52.130;5.570;2023-06-22T04:31:16;23.60;;;17.10;;
78549;SDS011;68091;52.130;5.570;2023-06-22T04:33:44;22.33;;;17.45;;
78549;SDS011;68091;52.130;5.570;2023-06-22T04:36:09;23.05;;;17.85;;
78549;SDS011;68091;52.130;5.570;2023-06-22T04:38:38;29.58;;;21.17;;
78549;SDS011;68091;52.130;5.570;2023-06-22T04:41:04;24.70;;;19.55;;
78549;SDS011;68091;52.130;5.570;2023-06-22T04:43:30;35.00;;;23.95;;
78549;SDS011;68091;52.130;5.570;2023-06-22T04:45:58;31.60;;;22.58;;
78549;SDS011;68091;52.130;5.570;2023-06-22T04:48:28;42.83;;;29.10;;
78549;SDS011;68091;52.130;5.570;2023-06-22T04:50:57;43.03;;;29.25;;
78549;SDS011;68091;52.130;5.570;2023-06-22T04:53:29;39.35;;;31.13;;
78549;SDS011;68091;52.130;5.570;2023-06-22T04:55:55;41.15;;;31.38;;
78549;SDS011;68091;52.130;5.570;2023-06-22T04:58:21;42.75;;;32.45;;
78549;SDS011;68091;52.130;5.570;2023-06-22T05:00:47;52.40;;;34.17;;
78549;SDS011;68091;52.130;5.570;2023-06-22T05:03:13;38.47;;;30.25;;
78549;SDS011;68091;52.130;5.570;2023-06-22T05:05:38;45.95;;;33.10;;
78549;SDS011;68091;52.130;5.570;2023-06-22T05:08:04;44.65;;;32.15;;
78549;SDS011;68091;52.130;5.570;2023-06-22T05:10:31;46.65;;;32.95;;
78549;SDS011;68091;52.130;5.570;2023-06-22T05:13:00;52.75;;;34.42;;
78549;SDS011;68091;52.130;5.570;2023-06-22T05:15:29;44.10;;;32.92;;
78549;SDS011;68091;52.130;5.570;2023-06-22T05:17:58;43.10;;;33.50;;
78549;SDS011;68091;52.130;5.570;2023-06-22T05:20:24;47.03;;;34.42;;
78549;SDS011;68091;52.130;5.570;2023-06-22T05:22:50;45.88;;;33.72;;
78549;SDS011;68091;52.130;5.570;2023-06-22T05:25:16;47.50;;;33.50;;
78549;SDS011;68091;52.130;5.570;2023-06-22T05:27:42;44.90;;;33.28;;
78549;SDS011;68091;52.130;5.570;2023-06-22T05:30:09;46.20;;;34.40;;
78549;SDS011;68091;52.130;5.570;2023-06-22T05:32:35;48.35;;;33.95;;
78549;SDS011;68091;52.130;5.570;2023-06-22T05:35:07;39.10;;;30.65;;
78549;SDS011;68091;52.130;5.570;2023-06-22T05:37:36;39.15;;;30.92;;
78549;SDS011;68091;52.130;5.570;2023-06-22T05:40:05;41.03;;;31.08;;
78549;SDS011;68091;52.130;5.570;2023-06-22T05:42:32;43.75;;;31.55;;
78549;SDS011;68091;52.130;5.570;2023-06-22T05:44:58;49.47;;;32.55;;
78549;SDS011;68091;52.130;5.570;2023-06-22T05:50:05;38.55;;;28.88;;
78549;SDS011;68091;52.130;5.570;2023-06-22T05:52:33;38.67;;;28.92;;
78549;SDS011;68091;52.130;5.570;2023-06-22T05:55:14;42.97;;;29.35;;
78549;SDS011;68091;52.130;5.570;2023-06-22T05:57:43;37.25;;;27.92;;
78549;SDS011;68091;52.130;5.570;2023-06-22T06:00:16;40.10;;;28.73;;
78549;SDS011;68091;52.130;5.570;2023-06-22T06:02:54;37.92;;;27.70;;
78549;SDS011;68091;52.130;5.570;2023-06-22T06:05:34;45.42;;;28.42;;
78549;SDS011;68091;52.130;5.570;2023-06-22T06:08:46;31.98;;;25.80;;
78549;SDS011;68091;52.130;5.570;2023-06-22T06:11:12;34.40;;;26.13;;
78549;SDS011;68091;52.130;5.570;2023-06-22T06:13:37;35.03;;;25.23;;
78549;SDS011;68091;52.130;5.570;2023-06-22T06:16:03;40.13;;;24.35;;
78549;SDS011;68091;52.130;5.570;2023-06-22T06:18:29;32.40;;;24.73;;
78549;SDS011;68091;52.130;5.570;2023-06-22T06:21:02;38.10;;;26.45;;
78549;SDS011;68091;52.130;5.570;2023-06-22T06:23:28;34.50;;;26.65;;
78549;SDS011;68091;52.130;5.570;2023-06-22T06:25:54;30.23;;;24.75;;
78549;SDS011;68091;52.130;5.570;2023-06-22T06:28:19;26.77;;;23.00;;
78549;SDS011;68091;52.130;5.570;2023-06-22T06:30:45;29.33;;;22.52;;
78549;SDS011;68091;52.130;5.570;2023-06-22T06:33:12;32.58;;;24.00;;
78549;SDS011;68091;52.130;5.570;2023-06-22T06:35:38;32.40;;;24.80;;
78549;SDS011;68091;52.130;5.570;2023-06-22T06:38:04;26.90;;;21.95;;
78549;SDS011;68091;52.130;5.570;2023-06-22T06:40:30;29.20;;;22.75;;
78549;SDS011;68091;52.130;5.570;2023-06-22T06:42:56;27.17;;;22.40;;
78549;SDS011;68091;52.130;5.570;2023-06-22T06:45:22;31.13;;;22.17;;
78549;SDS011;68091;52.130;5.570;2023-06-22T06:47:49;28.13;;;21.13;;
78549;SDS011;68091;52.130;5.570;2023-06-22T06:50:15;29.75;;;22.58;;
78549;SDS011;68091;52.130;5.570;2023-06-22T06:52:41;31.60;;;23.00;;
78549;SDS011;68091;52.130;5.570;2023-06-22T06:55:08;26.92;;;21.92;;
78549;SDS011;68091;52.130;5.570;2023-06-22T06:57:39;26.55;;;20.75;;
78549;SDS011;68091;52.130;5.570;2023-06-22T07:00:05;26.02;;;20.02;;
78549;SDS011;68091;52.130;5.570;2023-06-22T07:02:39;29.38;;;20.05;;
78549;SDS011;68091;52.130;5.570;2023-06-22T07:05:06;23.58;;;18.50;;
78549;SDS011;68091;52.130;5.570;2023-06-22T07:07:32;23.83;;;17.70;;
78549;SDS011;68091;52.130;5.570;2023-06-22T07:09:58;23.40;;;17.63;;
78549;SDS011;68091;52.130;5.570;2023-06-22T07:12:24;24.55;;;18.60;;
78549;SDS011;68091;52.130;5.570;2023-06-22T07:14:51;24.10;;;18.30;;
78549;SDS011;68091;52.130;5.570;2023-06-22T07:17:28;18.83;;;16.25;;
78549;SDS011;68091;52.130;5.570;2023-06-22T07:19:54;21.17;;;16.98;;
78549;SDS011;68091;52.130;5.570;2023-06-22T07:22:20;20.65;;;15.05;;
78549;SDS011;68091;52.130;5.570;2023-06-22T07:24:45;23.13;;;15.68;;
78549;SDS011;68091;52.130;5.570;2023-06-22T07:27:11;22.50;;;15.00;;
78549;SDS011;68091;52.130;5.570;2023-06-22T07:29:37;22.75;;;15.63;;
78549;SDS011;68091;52.130;5.570;2023-06-22T07:32:05;18.70;;;13.93;;
78549;SDS011;68091;52.130;5.570;2023-06-22T07:34:31;19.25;;;14.35;;
78549;SDS011;68091;52.130;5.570;2023-06-22T07:36:58;19.75;;;15.00;;
78549;SDS011;68091;52.130;5.570;2023-06-22T07:39:24;20.02;;;13.52;;
78549;SDS011;68091;52.130;5.570;2023-06-22T07:41:51;19.33;;;14.48;;
78549;SDS011;68091;52.130;5.570;2023-06-22T07:44:17;19.63;;;13.25;;
78549;SDS011;68091;52.130;5.570;2023-06-22T07:46:43;23.42;;;14.20;;
78549;SDS011;68091;52.130;5.570;2023-06-22T07:49:09;18.48;;;13.82;;
78549;SDS011;68091;52.130;5.570;2023-06-22T07:51:34;15.45;;;11.32;;
78549;SDS011;68091;52.130;5.570;2023-06-22T07:54:00;17.50;;;12.88;;
78549;SDS011;68091;52.130;5.570;2023-06-22T07:56:28;15.60;;;12.38;;
78549;SDS011;68091;52.130;5.570;2023-06-22T07:58:54;17.70;;;11.48;;
78549;SDS011;68091;52.130;5.570;2023-06-22T08:01:23;19.00;;;12.40;;
78549;SDS011;68091;52.130;5.570;2023-06-22T08:03:49;18.77;;;11.60;;
78549;SDS011;68091;52.130;5.570;2023-06-22T08:06:15;14.60;;;11.20;;
78549;SDS011;68091;52.130;5.570;2023-06-22T08:08:41;13.82;;;11.20;;
78549;SDS011;68091;52.130;5.570;2023-06-22T08:11:07;14.38;;;11.30;;
78549;SDS011;68091;52.130;5.570;2023-06-22T08:13:33;15.93;;;12.20;;
78549;SDS011;68091;52.130;5.570;2023-06-22T08:16:02;17.35;;;12.35;;
78549;SDS011;68091;52.130;5.570;2023-06-22T08:18:28;16.38;;;11.20;;
78549;SDS011;68091;52.130;5.570;2023-06-22T08:20:54;17.58;;;11.52;;
78549;SDS011;68091;52.130;5.570;2023-06-22T08:23:29;14.48;;;11.77;;
78549;SDS011;68091;52.130;5.570;2023-06-22T08:25:54;14.90;;;10.98;;
78549;SDS011;68091;52.130;5.570;2023-06-22T08:28:20;12.48;;;10.73;;
78549;SDS011;68091;52.130;5.570;2023-06-22T08:30:46;14.15;;;11.40;;
78549;SDS011;68091;52.130;5.570;2023-06-22T08:33:12;12.02;;;9.85;;
78549;SDS011;68091;52.130;5.570;2023-06-22T08:35:37;14.82;;;9.35;;
78549;SDS011;68091;52.130;5.570;2023-06-22T08:38:03;13.25;;;9.23;;
78549;SDS011;68091;52.130;5.570;2023-06-22T08:40:29;13.98;;;9.50;;
78549;SDS011;68091;52.130;5.570;2023-06-22T08:43:01;12.43;;;8.95;;
78549;SDS011;68091;52.130;5.570;2023-06-22T08:45:27;9.00;;;7.22;;
78549;SDS011;68091;52.130;5.570;2023-06-22T08:47:52;12.82;;;8.45;;
78549;SDS011;68091;52.130;5.570;2023-06-22T08:50:18;13.95;;;8.13;;
78549;SDS011;68091;52.130;5.570;2023-06-22T08:52:44;10.68;;;8.07;;
78549;SDS011;68091;52.130;5.570;2023-06-22T08:55:10;9.68;;;7.88;;
78549;SDS011;68091;52.130;5.570;2023-06-22T08:57:36;15.13;;;7.38;;
78549;SDS011;68091;52.130;5.570;2023-06-22T09:00:06;11.57;;;7.07;;
78549;SDS011;68091;52.130;5.570;2023-06-22T09:02:41;10.18;;;6.53;;
78549;SDS011;68091;52.130;5.570;2023-06-22T09:05:10;9.88;;;6.32;;
78549;SDS011;68091;52.130;5.570;2023-06-22T09:07:36;7.43;;;5.40;;
78549;SDS011;68091;52.130;5.570;2023-06-22T09:10:02;10.65;;;6.30;;
78549;SDS011;68091;52.130;5.570;2023-06-22T09:12:31;9.52;;;6.25;;
78549;SDS011;68091;52.130;5.570;2023-06-22T09:15:00;6.53;;;5.03;;
78549;SDS011;68091;52.130;5.570;2023-06-22T09:17:27;13.27;;;5.50;;
78549;SDS011;68091;52.130;5.570;2023-06-22T09:19:53;6.05;;;4.75;;
78549;SDS011;68091;52.130;5.570;2023-06-22T09:22:19;7.63;;;4.53;;
78549;SDS011;68091;52.130;5.570;2023-06-22T09:24:45;8.80;;;4.50;;
78549;SDS011;68091;52.130;5.570;2023-06-22T09:27:10;12.30;;;5.38;;
78549;SDS011;68091;52.130;5.570;2023-06-22T09:29:36;10.18;;;6.30;;
78549;SDS011;68091;52.130;5.570;2023-06-22T09:32:02;9.00;;;5.95;;
78549;SDS011;68091;52.130;5.570;2023-06-22T09:34:27;7.95;;;5.70;;
78549;SDS011;68091;52.130;5.570;2023-06-22T09:36:53;12.82;;;6.03;;
78549;SDS011;68091;52.130;5.570;2023-06-22T09:39:20;9.20;;;6.47;;
78549;SDS011;68091;52.130;5.570;2023-06-22T09:41:45;7.18;;;4.78;;
78549;SDS011;68091;52.130;5.570;2023-06-22T09:44:14;6.03;;;4.18;;
78549;SDS011;68091;52.130;5.570;2023-06-22T09:46:40;8.10;;;4.70;;
78549;SDS011;68091;52.130;5.570;2023-06-22T09:49:05;9.90;;;5.72;;
78549;SDS011;68091;52.130;5.570;2023-06-22T09:51:31;9.02;;;5.22;;
78549;SDS011;68091;52.130;5.570;2023-06-22T09:53:57;6.38;;;5.07;;
78549;SDS011;68091;52.130;5.570;2023-06-22T09:56:23;8.10;;;5.22;;
78549;SDS011;68091;52.130;5.570;2023-06-22T09:58:49;10.55;;;5.18;;
78549;SDS011;68091;52.130;5.570;2023-06-22T10:01:17;10.02;;;5.97;;
78549;SDS011;68091;52.130;5.570;2023-06-22T10:03:43;11.18;;;7.18;;
78549;SDS011;68091;52.130;5.570;2023-06-22T10:06:12;10.55;;;5.80;;
78549;SDS011;68091;52.130;5.570;2023-06-22T10:08:38;7.55;;;6.18;;
78549;SDS011;68091;52.130;5.570;2023-06-22T10:11:04;14.73;;;7.20;;
78549;SDS011;68091;52.130;5.570;2023-06-22T10:13:30;16.13;;;6.05;;
78549;SDS011;68091;52.130;5.570;2023-06-22T10:15:59;8.35;;;5.90;;
78549;SDS011;68091;52.130;5.570;2023-06-22T10:18:25;11.68;;;7.45;;
78549;SDS011;68091;52.130;5.570;2023-06-22T10:20:50;12.75;;;7.03;;
78549;SDS011;68091;52.130;5.570;2023-06-22T10:23:19;13.85;;;7.10;;
78549;SDS011;68091;52.130;5.570;2023-06-22T10:25:48;7.80;;;6.63;;
78549;SDS011;68091;52.130;5.570;2023-06-22T10:28:23;11.65;;;6.93;;
78549;SDS011;68091;52.130;5.570;2023-06-22T10:30:48;8.15;;;5.43;;
78549;SDS011;68091;52.130;5.570;2023-06-22T10:33:14;8.52;;;5.85;;
78549;SDS011;68091;52.130;5.570;2023-06-22T10:35:40;9.60;;;5.38;;
78549;SDS011;68091;52.130;5.570;2023-06-22T10:38:05;8.82;;;5.47;;
78549;SDS011;68091;52.130;5.570;2023-06-22T10:40:31;9.07;;;5.20;;
78549;SDS011;68091;52.130;5.570;2023-06-22T10:42:57;7.55;;;5.43;;
78549;SDS011;68091;52.130;5.570;2023-06-22T10:45:23;6.68;;;4.82;;
78549;SDS011;68091;52.130;5.570;2023-06-22T10:47:49;9.00;;;5.47;;
78549;SDS011;68091;52.130;5.570;2023-06-22T10:50:14;9.40;;;5.30;;
78549;SDS011;68091;52.130;5.570;2023-06-22T10:52:40;5.90;;;4.75;;
78549;SDS011;68091;52.130;5.570;2023-06-22T10:55:09;7.03;;;5.30;;
78549;SDS011;68091;52.130;5.570;2023-06-22T10:57:35;12.80;;;6.20;;
78549;SDS011;68091;52.130;5.570;2023-06-22T11:00:02;6.78;;;4.90;;
78549;SDS011;68091;52.130;5.570;2023-06-22T11:02:30;8.13;;;5.00;;
78549;SDS011;68091;52.130;5.570;2023-06-22T11:04:56;8.75;;;5.40;;
78549;SDS011;68091;52.130;5.570;2023-06-22T11:07:25;6.78;;;5.10;;
78549;SDS011;68091;52.130;5.570;2023-06-22T11:09:53;7.75;;;4.68;;
78549;SDS011;68091;52.130;5.570;2023-06-22T11:12:19;8.15;;;4.85;;
78549;SDS011;68091;52.130;5.570;2023-06-22T11:14:45;7.25;;;5.10;;
78549;SDS011;68091;52.130;5.570;2023-06-22T11:17:10;6.75;;;4.13;;
78549;SDS011;68091;52.130;5.570;2023-06-22T11:19:36;8.68;;;5.95;;
78549;SDS011;68091;52.130;5.570;2023-06-22T11:22:02;18.27;;;6.45;;
78549;SDS011;68091;52.130;5.570;2023-06-22T11:24:28;19.98;;;6.10;;
78549;SDS011;68091;52.130;5.570;2023-06-22T11:26:53;9.05;;;6.35;;
78549;SDS011;68091;52.130;5.570;2023-06-22T11:29:19;9.70;;;6.55;;
78549;SDS011;68091;52.130;5.570;2023-06-22T11:31:45;10.30;;;7.30;;
78549;SDS011;68091;52.130;5.570;2023-06-22T11:34:10;12.10;;;7.88;;
78549;SDS011;68091;52.130;5.570;2023-06-22T11:36:36;15.88;;;7.32;;
78549;SDS011;68091;52.130;5.570;2023-06-22T11:39:02;13.18;;;7.72;;
78549;SDS011;68091;52.130;5.570;2023-06-22T11:41:28;13.93;;;7.50;;
78549;SDS011;68091;52.130;5.570;2023-06-22T11:43:53;9.60;;;6.68;;
78549;SDS011;68091;52.130;5.570;2023-06-22T11:46:22;15.57;;;8.10;;
78549;SDS011;68091;52.130;5.570;2023-06-22T11:48:50;9.98;;;7.65;;
78549;SDS011;68091;52.130;5.570;2023-06-22T11:51:15;10.50;;;7.05;;
78549;SDS011;68091;52.130;5.570;2023-06-22T11:53:43;13.00;;;8.35;;
78549;SDS011;68091;52.130;5.570;2023-06-22T11:56:09;9.93;;;8.15;;
78549;SDS011;68091;52.130;5.570;2023-06-22T11:58:36;11.35;;;7.20;;
78549;SDS011;68091;52.130;5.570;2023-06-22T12:01:04;17.90;;;7.22;;
78549;SDS011;68091;52.130;5.570;2023-06-22T12:03:30;14.10;;;7.25;;
78549;SDS011;68091;52.130;5.570;2023-06-22T12:05:55;11.63;;;6.63;;
78549;SDS011;68091;52.130;5.570;2023-06-22T12:08:21;12.48;;;7.18;;
78549;SDS011;68091;52.130;5.570;2023-06-22T12:10:48;10.30;;;7.13;;
78549;SDS011;68091;52.130;5.570;2023-06-22T12:13:15;11.85;;;7.15;;
78549;SDS011;68091;52.130;5.570;2023-06-22T12:15:40;7.68;;;6.88;;
78549;SDS011;68091;52.130;5.570;2023-06-22T12:18:06;8.98;;;6.35;;
78549;SDS011;68091;52.130;5.570;2023-06-22T12:20:33;9.55;;;7.53;;
78549;SDS011;68091;52.130;5.570;2023-06-22T12:22:59;11.10;;;7.32;;
78549;SDS011;68091;52.130;5.570;2023-06-22T12:25:27;11.48;;;7.97;;
78549;SDS011;68091;52.130;5.570;2023-06-22T12:27:53;11.40;;;8.40;;
78549;SDS011;68091;52.130;5.570;2023-06-22T12:30:19;17.13;;;10.25;;
78549;SDS011;68091;52.130;5.570;2023-06-22T12:32:44;11.63;;;8.80;;
78549;SDS011;68091;52.130;5.570;2023-06-22T12:35:13;15.57;;;9.73;;
78549;SDS011;68091;52.130;5.570;2023-06-22T12:37:59;11.38;;;8.27;;
78549;SDS011;68091;52.130;5.570;2023-06-22T12:40:25;11.77;;;8.80;;
78549;SDS011;68091;52.130;5.570;2023-06-22T12:42:50;12.68;;;9.40;;
78549;SDS011;68091;52.130;5.570;2023-06-22T12:45:16;12.55;;;9.60;;
78549;SDS011;68091;52.130;5.570;2023-06-22T12:47:42;12.52;;;9.77;;
78549;SDS011;68091;52.130;5.570;2023-06-22T12:50:08;15.60;;;10.93;;
78549;SDS011;68091;52.130;5.570;2023-06-22T12:52:36;13.13;;;9.82;;
78549;SDS011;68091;52.130;5.570;2023-06-22T12:55:05;13.85;;;10.05;;
78549;SDS011;68091;52.130;5.570;2023-06-22T12:57:31;13.27;;;9.90;;
78549;SDS011;68091;52.130;5.570;2023-06-22T12:59:56;13.75;;;10.20;;
78549;SDS011;68091;52.130;5.570;2023-06-22T13:02:23;15.40;;;12.00;;
78549;SDS011;68091;52.130;5.570;2023-06-22T13:04:49;14.85;;;12.05;;
78549;SDS011;68091;52.130;5.570;2023-06-22T13:07:14;15.23;;;13.32;;
78549;SDS011;68091;52.130;5.570;2023-06-22T13:09:40;16.92;;;12.23;;
78549;SDS011;68091;52.130;5.570;2023-06-22T13:12:06;17.58;;;12.68;;
78549;SDS011;68091;52.130;5.570;2023-06-22T13:14:32;18.85;;;13.93;;
78549;SDS011;68091;52.130;5.570;2023-06-22T13:16:58;18.00;;;13.30;;
78549;SDS011;68091;52.130;5.570;2023-06-22T13:19:26;24.13;;;13.77;;
78549;SDS011;68091;52.130;5.570;2023-06-22T13:21:53;15.02;;;13.15;;
78549;SDS011;68091;52.130;5.570;2023-06-22T13:24:19;14.73;;;12.60;;
78549;SDS011;68091;52.130;5.570;2023-06-22T13:26:45;20.67;;;12.65;;
78549;SDS011;68091;52.130;5.570;2023-06-22T13:29:10;13.85;;;11.70;;
78549;SDS011;68091;52.130;5.570;2023-06-22T13:31:37;18.50;;;13.27;;
78549;SDS011;68091;52.130;5.570;2023-06-22T13:34:02;14.90;;;12.27;;
78549;SDS011;68091;52.130;5.570;2023-06-22T13:36:28;16.25;;;11.88;;
78549;SDS011;68091;52.130;5.570;2023-06-22T13:38:55;18.77;;;11.70;;
78549;SDS011;68091;52.130;5.570;2023-06-22T13:41:21;18.38;;;13.82;;
78549;SDS011;68091;52.130;5.570;2023-06-22T13:43:46;16.38;;;11.27;;
78549;SDS011;68091;52.130;5.570;2023-06-22T13:46:12;18.67;;;13.93;;
78549;SDS011;68091;52.130;5.570;2023-06-22T13:48:38;19.48;;;14.05;;
78549;SDS011;68091;52.130;5.570;2023-06-22T13:51:04;14.70;;;12.43;;
78549;SDS011;68091;52.130;5.570;2023-06-22T13:53:30;18.60;;;14.43;;
78549;SDS011;68091;52.130;5.570;2023-06-22T13:55:55;15.40;;;13.13;;
78549;SDS011;68091;52.130;5.570;2023-06-22T13:58:21;16.70;;;12.82;;
78549;SDS011;68091;52.130;5.570;2023-06-22T14:00:47;18.65;;;13.98;;
78549;SDS011;68091;52.130;5.570;2023-06-22T14:03:14;18.60;;;14.85;;
78549;SDS011;68091;52.130;5.570;2023-06-22T14:05:41;18.63;;;14.23;;
78549;SDS011;68091;52.130;5.570;2023-06-22T14:08:07;14.25;;;12.80;;
78549;SDS011;68091;52.130;5.570;2023-06-22T14:10:34;13.60;;;10.88;;
78549;SDS011;68091;52.130;5.570;2023-06-22T14:13:00;14.18;;;12.68;;
78549;SDS011;68091;52.130;5.570;2023-06-22T14:15:25;17.88;;;11.90;;
78549;SDS011;68091;52.130;5.570;2023-06-22T14:17:54;16.10;;;11.43;;
78549;SDS011;68091;52.130;5.570;2023-06-22T14:20:20;14.73;;;11.13;;
78549;SDS011;68091;52.130;5.570;2023-06-22T14:22:48;15.07;;;12.13;;
78549;SDS011;68091;52.130;5.570;2023-06-22T14:25:14;15.95;;;11.40;;
78549;SDS011;68091;52.130;5.570;2023-06-22T14:27:39;18.45;;;12.02;;
78549;SDS011;68091;52.130;5.570;2023-06-22T14:30:05;13.68;;;10.65;;
78549;SDS011;68091;52.130;5.570;2023-06-22T14:32:31;16.30;;;12.15;;
78549;SDS011;68091;52.130;5.570;2023-06-22T14:34:57;12.98;;;10.98;;
78549;SDS011;68091;52.130;5.570;2023-06-22T14:37:23;15.98;;;11.02;;
78549;SDS011;68091;52.130;5.570;2023-06-22T14:39:48;15.02;;;11.10;;
78549;SDS011;68091;52.130;5.570;2023-06-22T14:42:14;15.70;;;11.07;;
78549;SDS011;68091;52.130;5.570;2023-06-22T14:44:40;14.65;;;10.82;;